ダカール の空港の天気 - METARとTAF

レオポール・セダール・サンゴール国際空港 ( GOOY / DKR ) - セネガル ダカール
飛行場実況気象(Metar)
観測時間10/22 11:00 GMT (10/22 11:00 UTC)
風向・風速北東 7m/s
視程10km以上
天気現象
なし
気温32℃
湿度71%
気圧1013hPa
METARGOOY 221100Z 04014KT CAVOK 32/26 Q1013
過去の天気等 Google飛行場航空写真 Wunderground天気予報

過去48時間のMETAR

飛行場予報(TAF)
発表時間: 10/22 11:30 GMT (10/22 11:30 UTC)
予報対象時間: 22日12時 GMT ~ 23日18時 GMT
風向・風速北北東 6m/s
視程10km以上
なし
TAF GOOY 221130Z 2212/2318 02012KT CAVOK